sensor_id;sensor_type;location;lat;lon;timestamp;pressure;altitude;pressure_sealevel;temperature;humidity
15529;BME280;7866;52.280;9.500;2022-07-05T00:01:30;100758.28;;;17.53;63.85
15529;BME280;7866;52.280;9.500;2022-07-05T00:06:32;100758.75;;;17.15;65.16
15529;BME280;7866;52.280;9.500;2022-07-05T00:11:35;100754.06;;;17.37;64.81
15529;BME280;7866;52.280;9.500;2022-07-05T00:16:36;100748.59;;;17.30;64.92
15529;BME280;7866;52.280;9.500;2022-07-05T00:21:38;100750.03;;;17.19;65.86
15529;BME280;7866;52.280;9.500;2022-07-05T00:26:41;100745.00;;;17.10;65.80
15529;BME280;7866;52.280;9.500;2022-07-05T00:31:43;100746.03;;;17.09;65.90
15529;BME280;7866;52.280;9.500;2022-07-05T00:36:45;100743.25;;;16.95;66.83
15529;BME280;7866;52.280;9.500;2022-07-05T00:41:48;100743.25;;;16.95;66.83
15529;BME280;7866;52.280;9.500;2022-07-05T00:46:49;100740.16;;;16.92;66.60
15529;BME280;7866;52.280;9.500;2022-07-05T00:51:51;100747.56;;;16.83;67.12
15529;BME280;7866;52.280;9.500;2022-07-05T00:56:55;100750.25;;;16.77;67.83
15529;BME280;7866;52.280;9.500;2022-07-05T01:01:57;100744.94;;;16.62;68.25
15529;BME280;7866;52.280;9.500;2022-07-05T01:06:59;100747.25;;;16.71;67.85
15529;BME280;7866;52.280;9.500;2022-07-05T01:12:05;100749.28;;;16.56;68.66
15529;BME280;7866;52.280;9.500;2022-07-05T01:17:07;100745.91;;;16.54;68.63
15529;BME280;7866;52.280;9.500;2022-07-05T01:22:15;100751.94;;;16.49;68.84
15529;BME280;7866;52.280;9.500;2022-07-05T01:27:19;100755.66;;;16.48;68.90
15529;BME280;7866;52.280;9.500;2022-07-05T01:32:21;100754.25;;;16.53;68.74
15529;BME280;7866;52.280;9.500;2022-07-05T01:37:23;100755.16;;;16.38;69.19
15529;BME280;7866;52.280;9.500;2022-07-05T01:42:26;100749.13;;;16.36;69.44
15529;BME280;7866;52.280;9.500;2022-07-05T01:47:28;100750.16;;;16.35;69.60
15529;BME280;7866;52.280;9.500;2022-07-05T01:52:31;100753.34;;;16.45;69.16
15529;BME280;7866;52.280;9.500;2022-07-05T01:57:34;100750.22;;;16.42;69.11
15529;BME280;7866;52.280;9.500;2022-07-05T02:02:39;100739.69;;;16.25;69.54
15529;BME280;7866;52.280;9.500;2022-07-05T02:07:47;100747.22;;;16.30;70.04
15529;BME280;7866;52.280;9.500;2022-07-05T02:12:51;100750.13;;;16.29;70.07
15529;BME280;7866;52.280;9.500;2022-07-05T02:17:52;100750.84;;;16.16;70.50
15529;BME280;7866;52.280;9.500;2022-07-05T02:22:54;100752.53;;;16.17;70.70
15529;BME280;7866;52.280;9.500;2022-07-05T02:28:00;100747.28;;;16.15;70.59
15529;BME280;7866;52.280;9.500;2022-07-05T02:33:02;100756.25;;;16.16;70.41
15529;BME280;7866;52.280;9.500;2022-07-05T02:38:04;100755.75;;;16.06;70.96
15529;BME280;7866;52.280;9.500;2022-07-05T02:43:07;100755.75;;;16.06;70.87
15529;BME280;7866;52.280;9.500;2022-07-05T02:48:09;100753.88;;;16.06;71.20
15529;BME280;7866;52.280;9.500;2022-07-05T02:53:11;100756.13;;;16.02;71.14
15529;BME280;7866;52.280;9.500;2022-07-05T02:58:14;100751.63;;;16.10;71.45
15529;BME280;7866;52.280;9.500;2022-07-05T03:03:17;100767.06;;;16.16;71.24
15529;BME280;7866;52.280;9.500;2022-07-05T03:08:19;100763.34;;;16.17;70.98
15529;BME280;7866;52.280;9.500;2022-07-05T03:13:22;100770.47;;;16.24;70.59
15529;BME280;7866;52.280;9.500;2022-07-05T03:18:24;100774.97;;;16.17;70.94
15529;BME280;7866;52.280;9.500;2022-07-05T03:23:26;100778.56;;;15.60;72.22
15529;BME280;7866;52.280;9.500;2022-07-05T03:28:29;100784.81;;;15.82;72.09
15529;BME280;7866;52.280;9.500;2022-07-05T03:33:30;100775.81;;;16.18;71.15
15529;BME280;7866;52.280;9.500;2022-07-05T03:38:32;100779.31;;;16.40;70.56
15529;BME280;7866;52.280;9.500;2022-07-05T03:43:35;100782.28;;;16.51;70.48
15529;BME280;7866;52.280;9.500;2022-07-05T03:48:37;100785.28;;;16.63;69.95
15529;BME280;7866;52.280;9.500;2022-07-05T03:53:38;100782.84;;;16.68;70.09
15529;BME280;7866;52.280;9.500;2022-07-05T03:58:42;100798.81;;;16.63;70.53
15529;BME280;7866;52.280;9.500;2022-07-05T04:03:43;100785.41;;;16.77;69.99
15529;BME280;7866;52.280;9.500;2022-07-05T04:08:45;100800.69;;;16.91;69.61
15529;BME280;7866;52.280;9.500;2022-07-05T04:13:49;100795.75;;;17.01;69.67
15529;BME280;7866;52.280;9.500;2022-07-05T04:18:50;100801.59;;;17.05;69.81
15529;BME280;7866;52.280;9.500;2022-07-05T04:23:52;100792.31;;;17.27;69.44
15529;BME280;7866;52.280;9.500;2022-07-05T04:28:55;100797.81;;;17.40;69.32
15529;BME280;7866;52.280;9.500;2022-07-05T04:33:57;100802.00;;;17.49;69.30
15529;BME280;7866;52.280;9.500;2022-07-05T04:38:58;100808.72;;;17.67;68.93
15529;BME280;7866;52.280;9.500;2022-07-05T04:44:01;100801.72;;;17.86;68.63
15529;BME280;7866;52.280;9.500;2022-07-05T04:49:03;100809.97;;;17.71;69.42
15529;BME280;7866;52.280;9.500;2022-07-05T04:54:05;100815.13;;;17.53;70.20
15529;BME280;7866;52.280;9.500;2022-07-05T04:59:08;100820.06;;;17.84;69.65
15529;BME280;7866;52.280;9.500;2022-07-05T05:04:09;100823.72;;;17.69;70.21
15529;BME280;7866;52.280;9.500;2022-07-05T05:09:11;100819.72;;;17.11;72.01
15529;BME280;7866;52.280;9.500;2022-07-05T05:14:14;100834.63;;;17.35;71.24
15529;BME280;7866;52.280;9.500;2022-07-05T05:19:16;100831.91;;;17.83;70.52
15529;BME280;7866;52.280;9.500;2022-07-05T05:24:18;100842.22;;;18.34;68.96
15529;BME280;7866;52.280;9.500;2022-07-05T05:29:21;100841.69;;;19.36;65.77
15529;BME280;7866;52.280;9.500;2022-07-05T05:34:22;100845.03;;;19.32;65.18
15529;BME280;7866;52.280;9.500;2022-07-05T05:39:24;100829.88;;;20.01;64.89
15529;BME280;7866;52.280;9.500;2022-07-05T05:44:27;100845.50;;;20.12;64.07
15529;BME280;7866;52.280;9.500;2022-07-05T05:49:29;100849.94;;;19.68;64.94
15529;BME280;7866;52.280;9.500;2022-07-05T05:54:30;100862.06;;;18.81;67.17
15529;BME280;7866;52.280;9.500;2022-07-05T05:59:33;100860.81;;;18.77;66.54
15529;BME280;7866;52.280;9.500;2022-07-05T06:04:35;100869.97;;;18.69;65.57
15529;BME280;7866;52.280;9.500;2022-07-05T06:09:37;100863.88;;;19.07;63.82
15529;BME280;7866;52.280;9.500;2022-07-05T06:14:40;100876.41;;;19.14;63.02
15529;BME280;7866;52.280;9.500;2022-07-05T06:19:42;100883.00;;;19.52;60.94
15529;BME280;7866;52.280;9.500;2022-07-05T06:24:43;100881.00;;;19.79;59.71
15529;BME280;7866;52.280;9.500;2022-07-05T06:29:46;100879.38;;;20.41;57.81
15529;BME280;7866;52.280;9.500;2022-07-05T06:34:48;100895.38;;;21.06;55.21
15529;BME280;7866;52.280;9.500;2022-07-05T06:39:50;100896.19;;;21.31;54.40
15529;BME280;7866;52.280;9.500;2022-07-05T06:44:53;100893.44;;;20.95;54.84
15529;BME280;7866;52.280;9.500;2022-07-05T06:49:57;100902.19;;;20.97;54.79
15529;BME280;7866;52.280;9.500;2022-07-05T06:54:59;100895.59;;;21.66;53.49
15529;BME280;7866;52.280;9.500;2022-07-05T07:00:03;100900.13;;;21.72;53.52
15529;BME280;7866;52.280;9.500;2022-07-05T07:05:06;100901.34;;;21.76;52.89
15529;BME280;7866;52.280;9.500;2022-07-05T07:10:09;100897.88;;;22.18;52.77
15529;BME280;7866;52.280;9.500;2022-07-05T07:15:12;100902.81;;;20.99;53.96
15529;BME280;7866;52.280;9.500;2022-07-05T07:20:13;100900.16;;;20.92;56.44
15529;BME280;7866;52.280;9.500;2022-07-05T07:25:15;100909.25;;;21.04;55.99
15529;BME280;7866;52.280;9.500;2022-07-05T07:30:21;100908.84;;;21.01;55.48
15529;BME280;7866;52.280;9.500;2022-07-05T07:35:23;100899.09;;;21.36;54.34
15529;BME280;7866;52.280;9.500;2022-07-05T07:40:25;100908.94;;;21.37;53.36
15529;BME280;7866;52.280;9.500;2022-07-05T07:45:28;100911.34;;;21.64;51.75
15529;BME280;7866;52.280;9.500;2022-07-05T07:50:31;100905.81;;;21.34;53.19
15529;BME280;7866;52.280;9.500;2022-07-05T07:55:32;100906.94;;;22.42;50.05
15529;BME280;7866;52.280;9.500;2022-07-05T08:00:35;100916.88;;;21.57;50.83
15529;BME280;7866;52.280;9.500;2022-07-05T08:05:37;100918.47;;;20.78;51.48
15529;BME280;7866;52.280;9.500;2022-07-05T08:10:39;100920.25;;;21.16;50.93
15529;BME280;7866;52.280;9.500;2022-07-05T08:15:42;100912.03;;;22.38;48.62
15529;BME280;7866;52.280;9.500;2022-07-05T08:20:43;100876.84;;;22.48;47.05
15529;BME280;7866;52.280;9.500;2022-07-05T08:26:03;100920.81;;;22.28;47.41
15529;BME280;7866;52.280;9.500;2022-07-05T08:31:06;100909.63;;;22.72;46.86
15529;BME280;7866;52.280;9.500;2022-07-05T08:36:08;100908.75;;;21.87;48.52
15529;BME280;7866;52.280;9.500;2022-07-05T08:41:10;100900.28;;;21.77;49.41
15529;BME280;7866;52.280;9.500;2022-07-05T08:46:15;100896.88;;;22.30;46.35
15529;BME280;7866;52.280;9.500;2022-07-05T08:51:18;100902.44;;;23.01;44.54
15529;BME280;7866;52.280;9.500;2022-07-05T08:56:21;100900.50;;;22.66;45.84
15529;BME280;7866;52.280;9.500;2022-07-05T09:01:25;100899.31;;;23.44;44.04
15529;BME280;7866;52.280;9.500;2022-07-05T09:06:27;100910.56;;;23.59;43.64
15529;BME280;7866;52.280;9.500;2022-07-05T09:11:32;100906.72;;;22.97;43.83
15529;BME280;7866;52.280;9.500;2022-07-05T09:16:37;100898.91;;;22.47;43.48
15529;BME280;7866;52.280;9.500;2022-07-05T09:21:41;100918.53;;;22.67;44.90
15529;BME280;7866;52.280;9.500;2022-07-05T09:26:44;100898.72;;;22.83;44.00
15529;BME280;7866;52.280;9.500;2022-07-05T09:31:49;100918.34;;;23.27;43.11
15529;BME280;7866;52.280;9.500;2022-07-05T09:36:53;100904.63;;;24.03;40.88
15529;BME280;7866;52.280;9.500;2022-07-05T09:42:08;100906.69;;;23.32;42.01
15529;BME280;7866;52.280;9.500;2022-07-05T09:47:13;100912.84;;;22.80;45.22
15529;BME280;7866;52.280;9.500;2022-07-05T09:52:33;100913.38;;;23.01;42.71
15529;BME280;7866;52.280;9.500;2022-07-05T09:57:37;100907.75;;;23.54;42.72
15529;BME280;7866;52.280;9.500;2022-07-05T10:02:43;100910.75;;;24.67;41.34
15529;BME280;7866;52.280;9.500;2022-07-05T10:07:46;100903.09;;;24.69;40.13
15529;BME280;7866;52.280;9.500;2022-07-05T10:12:50;100903.47;;;23.47;42.71
15529;BME280;7866;52.280;9.500;2022-07-05T10:17:59;100913.56;;;22.87;42.53
15529;BME280;7866;52.280;9.500;2022-07-05T10:23:02;100917.41;;;22.45;43.68
15529;BME280;7866;52.280;9.500;2022-07-05T10:28:05;100914.28;;;23.42;42.03
15529;BME280;7866;52.280;9.500;2022-07-05T10:33:08;100916.53;;;22.86;42.00
15529;BME280;7866;52.280;9.500;2022-07-05T10:38:11;100898.53;;;23.84;39.83
15529;BME280;7866;52.280;9.500;2022-07-05T10:43:14;100903.94;;;24.87;38.17
15529;BME280;7866;52.280;9.500;2022-07-05T10:48:19;100895.88;;;23.02;41.46
15529;BME280;7866;52.280;9.500;2022-07-05T10:53:22;100897.59;;;24.07;39.83
15529;BME280;7866;52.280;9.500;2022-07-05T10:58:31;100894.78;;;24.02;39.63
15529;BME280;7866;52.280;9.500;2022-07-05T11:03:35;100906.22;;;23.47;40.20
15529;BME280;7866;52.280;9.500;2022-07-05T11:14:36;100906.16;;;23.82;38.16
15529;BME280;7866;52.280;9.500;2022-07-05T11:20:02;100902.81;;;23.80;37.68
15529;BME280;7866;52.280;9.500;2022-07-05T11:25:06;100901.13;;;23.27;39.33
15529;BME280;7866;52.280;9.500;2022-07-05T11:30:23;100899.94;;;23.34;38.27
15529;BME280;7866;52.280;9.500;2022-07-05T11:35:31;100890.16;;;24.48;37.48
15529;BME280;7866;52.280;9.500;2022-07-05T11:40:35;100880.22;;;24.97;37.30
15529;BME280;7866;52.280;9.500;2022-07-05T11:45:38;100887.28;;;23.45;38.74
15529;BME280;7866;52.280;9.500;2022-07-05T11:50:41;100880.13;;;22.92;39.70
15529;BME280;7866;52.280;9.500;2022-07-05T11:55:45;100882.41;;;23.99;38.14
15529;BME280;7866;52.280;9.500;2022-07-05T12:00:53;100880.06;;;23.91;38.82
15529;BME280;7866;52.280;9.500;2022-07-05T12:05:56;100867.06;;;25.11;37.06
15529;BME280;7866;52.280;9.500;2022-07-05T12:10:59;100878.00;;;23.58;38.97
15529;BME280;7866;52.280;9.500;2022-07-05T12:16:18;100866.75;;;24.74;36.97
15529;BME280;7866;52.280;9.500;2022-07-05T12:21:21;100873.22;;;25.62;35.21
15529;BME280;7866;52.280;9.500;2022-07-05T12:26:23;100859.53;;;24.51;37.10
15529;BME280;7866;52.280;9.500;2022-07-05T12:31:25;100870.31;;;23.43;38.86
15529;BME280;7866;52.280;9.500;2022-07-05T12:36:28;100867.91;;;23.99;38.40
15529;BME280;7866;52.280;9.500;2022-07-05T12:41:30;100876.63;;;24.13;37.30
15529;BME280;7866;52.280;9.500;2022-07-05T12:46:35;100859.31;;;24.24;37.63
15529;BME280;7866;52.280;9.500;2022-07-05T12:51:40;100862.75;;;24.48;36.55
15529;BME280;7866;52.280;9.500;2022-07-05T12:56:46;100858.91;;;23.87;37.73
15529;BME280;7866;52.280;9.500;2022-07-05T13:02:06;100868.69;;;24.28;37.53
15529;BME280;7866;52.280;9.500;2022-07-05T13:07:09;100863.50;;;24.60;36.78
15529;BME280;7866;52.280;9.500;2022-07-05T13:12:12;100861.63;;;24.32;37.33
15529;BME280;7866;52.280;9.500;2022-07-05T13:17:17;100864.41;;;24.49;37.49
15529;BME280;7866;52.280;9.500;2022-07-05T13:22:20;100857.41;;;24.24;36.91
15529;BME280;7866;52.280;9.500;2022-07-05T13:27:22;100849.34;;;25.19;37.09
15529;BME280;7866;52.280;9.500;2022-07-05T13:32:24;100855.34;;;25.82;34.46
15529;BME280;7866;52.280;9.500;2022-07-05T13:37:27;100850.28;;;25.73;34.83
15529;BME280;7866;52.280;9.500;2022-07-05T13:42:28;100850.34;;;24.96;37.06
15529;BME280;7866;52.280;9.500;2022-07-05T13:47:30;100867.25;;;25.70;34.94
15529;BME280;7866;52.280;9.500;2022-07-05T13:52:33;100854.50;;;26.08;34.07
15529;BME280;7866;52.280;9.500;2022-07-05T13:57:35;100846.28;;;24.98;36.78
15529;BME280;7866;52.280;9.500;2022-07-05T14:02:36;100843.84;;;26.12;34.68
15529;BME280;7866;52.280;9.500;2022-07-05T14:07:39;100848.72;;;25.77;34.62
15529;BME280;7866;52.280;9.500;2022-07-05T14:12:41;100844.41;;;25.21;35.77
15529;BME280;7866;52.280;9.500;2022-07-05T14:17:43;100838.56;;;26.05;35.07
15529;BME280;7866;52.280;9.500;2022-07-05T14:22:46;100836.75;;;26.48;32.82
15529;BME280;7866;52.280;9.500;2022-07-05T14:27:48;100839.75;;;25.87;34.23
15529;BME280;7866;52.280;9.500;2022-07-05T14:32:49;100823.50;;;25.59;34.28
15529;BME280;7866;52.280;9.500;2022-07-05T14:37:52;100828.06;;;24.70;34.92
15529;BME280;7866;52.280;9.500;2022-07-05T14:42:54;100828.16;;;25.80;34.24
15529;BME280;7866;52.280;9.500;2022-07-05T14:47:56;100827.06;;;25.81;33.92
15529;BME280;7866;52.280;9.500;2022-07-05T14:52:59;100816.69;;;25.17;35.26
15529;BME280;7866;52.280;9.500;2022-07-05T14:58:08;100811.38;;;25.33;34.81
15529;BME280;7866;52.280;9.500;2022-07-05T15:03:10;100812.38;;;26.24;33.82
15529;BME280;7866;52.280;9.500;2022-07-05T15:08:13;100811.06;;;25.51;35.31
15529;BME280;7866;52.280;9.500;2022-07-05T15:13:14;100818.50;;;24.90;34.95
15529;BME280;7866;52.280;9.500;2022-07-05T15:18:17;100810.16;;;24.63;35.52
15529;BME280;7866;52.280;9.500;2022-07-05T15:23:20;100806.50;;;24.40;34.82
15529;BME280;7866;52.280;9.500;2022-07-05T15:28:24;100796.63;;;24.56;34.81
15529;BME280;7866;52.280;9.500;2022-07-05T15:33:26;100804.09;;;24.44;35.57
15529;BME280;7866;52.280;9.500;2022-07-05T15:38:31;100798.19;;;24.18;35.72
15529;BME280;7866;52.280;9.500;2022-07-05T15:43:33;100780.84;;;25.46;33.53
15529;BME280;7866;52.280;9.500;2022-07-05T15:48:35;100786.09;;;24.48;34.89
15529;BME280;7866;52.280;9.500;2022-07-05T15:53:38;100779.94;;;24.41;34.96
15529;BME280;7866;52.280;9.500;2022-07-05T15:58:40;100780.09;;;25.28;33.61
15529;BME280;7866;52.280;9.500;2022-07-05T16:03:42;100777.34;;;25.06;34.54
15529;BME280;7866;52.280;9.500;2022-07-05T16:08:45;100777.38;;;25.77;33.53
15529;BME280;7866;52.280;9.500;2022-07-05T16:13:46;100776.91;;;25.15;34.24
15529;BME280;7866;52.280;9.500;2022-07-05T16:18:48;100782.00;;;24.17;35.74
15529;BME280;7866;52.280;9.500;2022-07-05T16:23:51;100782.47;;;24.42;35.24
15529;BME280;7866;52.280;9.500;2022-07-05T16:28:53;100769.88;;;24.63;34.86
15529;BME280;7866;52.280;9.500;2022-07-05T16:33:55;100762.16;;;24.60;35.32
15529;BME280;7866;52.280;9.500;2022-07-05T16:38:58;100778.22;;;24.73;35.04
15529;BME280;7866;52.280;9.500;2022-07-05T16:44:02;100762.66;;;23.90;35.63
15529;BME280;7866;52.280;9.500;2022-07-05T16:49:04;100786.34;;;23.67;35.92
15529;BME280;7866;52.280;9.500;2022-07-05T16:54:07;100776.25;;;23.84;36.32
15529;BME280;7866;52.280;9.500;2022-07-05T16:59:08;100777.00;;;23.97;36.00
15529;BME280;7866;52.280;9.500;2022-07-05T17:04:10;100776.03;;;23.86;36.25
15529;BME280;7866;52.280;9.500;2022-07-05T17:09:13;100785.31;;;23.45;37.99
15529;BME280;7866;52.280;9.500;2022-07-05T17:14:15;100789.34;;;23.02;39.25
15529;BME280;7866;52.280;9.500;2022-07-05T17:19:16;100786.38;;;23.15;39.36
15529;BME280;7866;52.280;9.500;2022-07-05T17:24:19;100798.25;;;22.97;40.04
15529;BME280;7866;52.280;9.500;2022-07-05T17:29:21;100797.41;;;22.85;40.28
15529;BME280;7866;52.280;9.500;2022-07-05T17:34:23;100799.25;;;22.91;40.32
15529;BME280;7866;52.280;9.500;2022-07-05T17:39:26;100804.69;;;22.68;40.86
15529;BME280;7866;52.280;9.500;2022-07-05T17:44:29;100809.31;;;22.67;41.34
15529;BME280;7866;52.280;9.500;2022-07-05T17:49:30;100808.97;;;22.63;41.46
15529;BME280;7866;52.280;9.500;2022-07-05T17:54:34;100812.75;;;22.74;41.25
15529;BME280;7866;52.280;9.500;2022-07-05T17:59:35;100814.06;;;22.60;40.96
15529;BME280;7866;52.280;9.500;2022-07-05T18:04:37;100821.06;;;22.02;42.93
15529;BME280;7866;52.280;9.500;2022-07-05T18:09:40;100826.41;;;22.09;42.25
15529;BME280;7866;52.280;9.500;2022-07-05T18:14:42;100824.28;;;22.11;42.33
15529;BME280;7866;52.280;9.500;2022-07-05T18:19:44;100827.56;;;22.31;42.77
15529;BME280;7866;52.280;9.500;2022-07-05T18:24:47;100829.56;;;22.24;42.46
15529;BME280;7866;52.280;9.500;2022-07-05T18:29:48;100825.53;;;22.15;42.88
15529;BME280;7866;52.280;9.500;2022-07-05T18:34:50;100838.31;;;21.84;43.71
15529;BME280;7866;52.280;9.500;2022-07-05T18:39:53;100836.81;;;21.70;43.98
15529;BME280;7866;52.280;9.500;2022-07-05T18:44:55;100840.63;;;21.69;43.91
15529;BME280;7866;52.280;9.500;2022-07-05T18:49:57;100844.03;;;21.46;44.35
15529;BME280;7866;52.280;9.500;2022-07-05T18:55:00;100847.69;;;21.40;44.61
15529;BME280;7866;52.280;9.500;2022-07-05T19:00:02;100842.06;;;21.53;44.17
15529;BME280;7866;52.280;9.500;2022-07-05T19:05:05;100852.78;;;21.36;44.77
15529;BME280;7866;52.280;9.500;2022-07-05T19:10:10;100864.78;;;21.29;45.30
15529;BME280;7866;52.280;9.500;2022-07-05T19:15:29;100862.25;;;21.09;45.73
15529;BME280;7866;52.280;9.500;2022-07-05T19:20:30;100880.06;;;21.11;46.22
15529;BME280;7866;52.280;9.500;2022-07-05T19:25:34;100866.72;;;21.03;46.13
15529;BME280;7866;52.280;9.500;2022-07-05T19:30:36;100884.78;;;20.98;46.40
15529;BME280;7866;52.280;9.500;2022-07-05T19:35:38;100884.97;;;20.53;47.30
15529;BME280;7866;52.280;9.500;2022-07-05T19:40:42;100889.28;;;20.35;48.56
15529;BME280;7866;52.280;9.500;2022-07-05T19:45:44;100893.94;;;20.28;49.19
15529;BME280;7866;52.280;9.500;2022-07-05T19:50:46;100898.53;;;20.28;49.43
15529;BME280;7866;52.280;9.500;2022-07-05T19:55:49;100905.59;;;20.04;50.67
15529;BME280;7866;52.280;9.500;2022-07-05T20:00:50;100910.91;;;20.24;50.23
15529;BME280;7866;52.280;9.500;2022-07-05T20:05:52;100912.84;;;19.72;51.50
15529;BME280;7866;52.280;9.500;2022-07-05T20:10:56;100925.78;;;19.83;51.31
15529;BME280;7866;52.280;9.500;2022-07-05T20:15:57;100925.84;;;19.63;51.75
15529;BME280;7866;52.280;9.500;2022-07-05T20:21:00;100930.72;;;19.92;51.07
15529;BME280;7866;52.280;9.500;2022-07-05T20:26:03;100945.22;;;19.73;51.90
15529;BME280;7866;52.280;9.500;2022-07-05T20:31:04;100939.72;;;19.86;51.36
15529;BME280;7866;52.280;9.500;2022-07-05T20:36:06;100939.97;;;19.78;51.67
15529;BME280;7866;52.280;9.500;2022-07-05T20:41:09;100949.00;;;19.59;52.57
15529;BME280;7866;52.280;9.500;2022-07-05T20:46:11;100955.53;;;19.44;52.88
15529;BME280;7866;52.280;9.500;2022-07-05T20:51:13;100962.25;;;19.22;53.66
15529;BME280;7866;52.280;9.500;2022-07-05T20:56:16;100959.97;;;19.12;53.99
15529;BME280;7866;52.280;9.500;2022-07-05T21:01:17;100959.13;;;19.12;53.55
15529;BME280;7866;52.280;9.500;2022-07-05T21:06:19;100968.53;;;19.03;54.04
15529;BME280;7866;52.280;9.500;2022-07-05T21:11:22;100968.53;;;19.03;53.74
15529;BME280;7866;52.280;9.500;2022-07-05T21:16:25;100968.09;;;18.73;54.66
15529;BME280;7866;52.280;9.500;2022-07-05T21:21:27;100979.78;;;18.73;54.80
15529;BME280;7866;52.280;9.500;2022-07-05T21:26:30;100992.75;;;18.91;53.98
15529;BME280;7866;52.280;9.500;2022-07-05T21:31:32;100993.31;;;18.60;54.22
15529;BME280;7866;52.280;9.500;2022-07-05T21:36:33;100997.88;;;18.53;54.95
15529;BME280;7866;52.280;9.500;2022-07-05T21:41:37;101004.13;;;18.46;54.91
15529;BME280;7866;52.280;9.500;2022-07-05T21:46:39;101008.06;;;18.37;54.90
15529;BME280;7866;52.280;9.500;2022-07-05T21:51:40;101006.94;;;18.73;54.31
15529;BME280;7866;52.280;9.500;2022-07-05T21:56:44;101009.44;;;18.81;54.07
15529;BME280;7866;52.280;9.500;2022-07-05T22:01:45;101008.81;;;18.86;54.38
15529;BME280;7866;52.280;9.500;2022-07-05T22:07:06;101020.31;;;18.81;54.89
15529;BME280;7866;52.280;9.500;2022-07-05T22:12:09;101023.00;;;18.81;54.66
15529;BME280;7866;52.280;9.500;2022-07-05T22:17:11;101025.22;;;18.58;55.42
15529;BME280;7866;52.280;9.500;2022-07-05T22:22:13;101033.38;;;18.51;55.98
15529;BME280;7866;52.280;9.500;2022-07-05T22:27:16;101033.97;;;18.40;56.14
15529;BME280;7866;52.280;9.500;2022-07-05T22:32:18;101044.47;;;18.15;57.06
15529;BME280;7866;52.280;9.500;2022-07-05T22:37:19;101037.00;;;18.17;56.78
15529;BME280;7866;52.280;9.500;2022-07-05T22:42:22;101031.56;;;18.17;56.75
15529;BME280;7866;52.280;9.500;2022-07-05T22:47:24;101032.63;;;18.16;56.26
15529;BME280;7866;52.280;9.500;2022-07-05T22:52:26;101036.06;;;18.03;56.99
15529;BME280;7866;52.280;9.500;2022-07-05T22:57:29;101033.63;;;18.08;56.58
15529;BME280;7866;52.280;9.500;2022-07-05T23:02:30;101026.88;;;17.97;57.18
15529;BME280;7866;52.280;9.500;2022-07-05T23:07:32;101030.06;;;17.73;57.43
15529;BME280;7866;52.280;9.500;2022-07-05T23:12:35;101036.19;;;17.54;58.05
15529;BME280;7866;52.280;9.500;2022-07-05T23:17:37;101038.00;;;17.46;58.43
15529;BME280;7866;52.280;9.500;2022-07-05T23:22:38;101036.84;;;17.28;58.77
15529;BME280;7866;52.280;9.500;2022-07-05T23:27:41;101042.25;;;17.28;58.97
15529;BME280;7866;52.280;9.500;2022-07-05T23:32:43;101041.38;;;17.27;58.97
15529;BME280;7866;52.280;9.500;2022-07-05T23:37:45;101051.19;;;17.07;59.06
15529;BME280;7866;52.280;9.500;2022-07-05T23:42:49;101048.03;;;17.03;58.82
15529;BME280;7866;52.280;9.500;2022-07-05T23:47:51;101036.13;;;16.97;59.20
15529;BME280;7866;52.280;9.500;2022-07-05T23:52:52;101048.03;;;17.03;58.44
15529;BME280;7866;52.280;9.500;2022-07-05T23:57:55;101048.63;;;16.98;58.82
